createdAt,value
2023-04-01T00:01:37.286Z,30.47
2023-04-01T00:04:07.682Z,29.20
2023-04-01T00:06:38.710Z,20.60
2023-04-01T00:09:08.014Z,23.37
2023-04-01T00:11:38.857Z,20.80
2023-04-01T00:14:08.180Z,25.93
2023-04-01T00:16:38.147Z,30.17
2023-04-01T00:19:08.147Z,27.43
2023-04-01T00:21:39.227Z,19.47
2023-04-01T00:24:09.712Z,22.57
2023-04-01T00:26:39.724Z,28.47
2023-04-01T00:29:09.286Z,20.33
2023-04-01T00:31:38.827Z,29.40
2023-04-01T00:34:08.139Z,22.73
2023-04-01T00:36:40.440Z,20.60
2023-04-01T00:39:10.380Z,22.33
2023-04-01T00:41:39.462Z,31.13
2023-04-01T00:44:19.978Z,35.73
2023-04-01T00:46:50.019Z,37.07
2023-04-01T00:49:21.550Z,24.30
2023-04-01T00:51:54.844Z,32.73
2023-04-01T00:54:25.994Z,21.53
2023-04-01T00:56:57.668Z,20.60
2023-04-01T00:59:30.675Z,24.07
2023-04-01T01:02:00.301Z,27.50
2023-04-01T01:04:30.877Z,27.60
2023-04-01T01:07:12.246Z,28.97
2023-04-01T01:09:45.650Z,26.83
2023-04-01T01:12:18.239Z,37.67
2023-04-01T01:14:53.409Z,29.03
2023-04-01T01:17:29.873Z,27.93
2023-04-01T01:20:26.102Z,28.60
2023-04-01T01:23:10.725Z,23.13
2023-04-01T01:25:44.214Z,31.23
2023-04-01T01:28:29.386Z,26.83
2023-04-01T01:31:04.261Z,24.00
2023-04-01T01:33:55.500Z,26.60
2023-04-01T01:36:30.450Z,22.80
2023-04-01T01:39:01.519Z,23.47
2023-04-01T01:41:32.713Z,29.17
2023-04-01T01:44:04.202Z,35.20
2023-04-01T01:46:34.510Z,35.10
2023-04-01T01:49:05.873Z,20.20
2023-04-01T01:51:37.643Z,24.23
2023-04-01T01:54:09.416Z,27.87
2023-04-01T01:56:39.310Z,26.50
2023-04-01T01:59:12.022Z,27.10
2023-04-01T02:01:45.450Z,27.70
2023-04-01T02:04:17.091Z,21.50
2023-04-01T02:06:51.750Z,22.90
2023-04-01T02:09:21.534Z,24.73
2023-04-01T02:11:52.219Z,32.17
2023-04-01T02:14:24.157Z,24.17
2023-04-01T02:16:55.244Z,27.23
2023-04-01T02:19:28.208Z,23.60
2023-04-01T02:22:00.666Z,20.53
2023-04-01T02:24:32.007Z,23.93
2023-04-01T02:27:02.041Z,31.27
2023-04-01T02:29:34.295Z,23.40
2023-04-01T02:32:04.130Z,27.83
2023-04-01T02:34:33.339Z,23.03
2023-04-01T02:37:05.417Z,29.97
2023-04-01T02:39:34.839Z,21.93
2023-04-01T02:42:04.482Z,24.43
2023-04-01T02:44:36.024Z,30.80
2023-04-01T02:47:06.320Z,32.43
2023-04-01T02:49:35.898Z,27.87
2023-04-01T02:52:06.865Z,22.53
2023-04-01T02:54:35.956Z,29.20
2023-04-01T02:57:06.328Z,34.23
2023-04-01T02:59:35.788Z,20.70
2023-04-01T03:02:05.905Z,28.27
2023-04-01T03:04:35.208Z,41.73
2023-04-01T03:07:06.246Z,21.30
2023-04-01T03:09:37.081Z,24.70
2023-04-01T03:12:07.482Z,26.70
2023-04-01T03:14:47.400Z,21.10
2023-04-01T03:17:17.654Z,28.33
2023-04-01T03:19:46.653Z,31.10
2023-04-01T03:22:20.921Z,36.03
2023-04-01T03:24:51.255Z,27.60
2023-04-01T03:27:20.434Z,30.07
2023-04-01T03:29:52.798Z,31.63
2023-04-01T03:32:22.236Z,19.67
2023-04-01T03:34:51.978Z,35.77
2023-04-01T03:37:24.290Z,36.83
2023-04-01T03:39:54.338Z,29.63
2023-04-01T03:42:23.303Z,31.33
2023-04-01T03:44:54.460Z,33.93
2023-04-01T03:47:24.070Z,44.23
2023-04-01T03:49:54.313Z,33.13
2023-04-01T03:52:25.262Z,22.40
2023-04-01T03:54:55.383Z,34.10
2023-04-01T03:57:24.498Z,33.80
2023-04-01T03:59:56.414Z,37.80
2023-04-01T04:02:26.466Z,27.60
2023-04-01T04:04:55.920Z,31.17
2023-04-01T04:07:27.571Z,31.03
2023-04-01T04:10:07.764Z,35.57
2023-04-01T04:12:38.817Z,33.87
2023-04-01T04:15:08.572Z,29.83
2023-04-01T04:17:38.473Z,26.30
2023-04-01T04:20:09.697Z,39.10
2023-04-01T04:22:40.466Z,34.07
2023-04-01T04:25:12.949Z,29.00
2023-04-01T04:27:42.544Z,32.90
2023-04-01T04:30:16.086Z,39.03
2023-04-01T04:32:45.981Z,27.93
2023-04-01T04:35:15.781Z,34.53
2023-04-01T04:37:48.203Z,30.97
2023-04-01T04:40:19.128Z,33.47
2023-04-01T04:42:49.292Z,32.90
2023-04-01T04:45:19.111Z,39.23
2023-04-01T04:47:57.477Z,37.13
2023-04-01T04:50:27.544Z,40.90
2023-04-01T04:52:58.165Z,28.13
2023-04-01T04:55:27.689Z,31.70
2023-04-01T04:58:16.737Z,31.47
2023-04-01T05:00:47.783Z,34.50
2023-04-01T05:03:24.718Z,40.27
2023-04-01T05:05:54.792Z,34.17
2023-04-01T05:08:25.515Z,40.27
2023-04-01T05:10:55.221Z,32.00
2023-04-01T05:13:24.275Z,41.50
2023-04-01T05:15:55.870Z,34.17
2023-04-01T05:18:25.321Z,37.77
2023-04-01T05:20:57.737Z,28.70
2023-04-01T05:23:28.569Z,35.30
2023-04-01T05:25:58.306Z,35.63
2023-04-01T05:28:29.024Z,35.60
2023-04-01T05:31:01.179Z,33.30
2023-04-01T05:33:38.835Z,49.10
2023-04-01T05:36:13.187Z,40.90
2023-04-01T05:38:47.631Z,42.50
2023-04-01T05:41:19.394Z,44.93
2023-04-01T05:43:49.446Z,42.10
2023-04-01T05:46:37.293Z,37.53
2023-04-01T05:49:16.057Z,34.87
2023-04-01T05:51:45.459Z,33.50
2023-04-01T05:54:17.381Z,28.87
2023-04-01T05:56:48.941Z,37.30
2023-04-01T05:59:19.496Z,29.17
2023-04-01T06:01:48.912Z,23.90
2023-04-01T06:17:27.381Z,17.43
2023-04-01T06:20:03.652Z,20.10
2023-04-01T06:22:51.858Z,20.00
2023-04-01T06:25:39.226Z,25.73
2023-04-01T06:28:36.439Z,21.70
2023-04-01T06:31:13.389Z,14.80
2023-04-01T06:33:57.505Z,18.20
2023-04-01T06:36:43.672Z,17.20
2023-04-01T06:39:23.059Z,17.50
2023-04-01T06:42:20.349Z,23.20
2023-04-01T06:44:57.084Z,14.80
2023-04-01T06:47:53.319Z,27.87
2023-04-01T06:50:56.623Z,18.03
2023-04-01T06:53:58.984Z,16.93
2023-04-01T06:56:49.459Z,16.40
2023-04-01T06:59:30.918Z,21.00
2023-04-01T07:02:02.961Z,22.33
2023-04-01T07:04:34.908Z,19.33
2023-04-01T07:07:07.647Z,19.90
2023-04-01T07:09:43.252Z,29.77
2023-04-01T07:12:50.332Z,14.70
2023-04-01T07:15:58.812Z,17.20
2023-04-01T07:18:35.015Z,25.30
2023-04-01T07:21:13.540Z,16.47
2023-04-01T07:23:46.870Z,13.30
2023-04-01T07:26:36.342Z,15.70
2023-04-01T07:29:14.299Z,23.13
2023-04-01T07:32:08.780Z,18.10
2023-04-01T07:34:44.910Z,21.73
2023-04-01T07:37:19.439Z,22.80
2023-04-01T07:39:54.605Z,22.40
2023-04-01T07:42:44.144Z,18.37
2023-04-01T07:45:18.887Z,18.77
2023-04-01T07:47:53.269Z,25.63
2023-04-01T07:50:26.814Z,23.63
2023-04-01T07:53:02.890Z,23.00
2023-04-01T07:55:34.165Z,19.83
2023-04-01T07:58:07.945Z,17.67
2023-04-01T08:00:45.836Z,19.60
2023-04-01T08:03:30.613Z,13.93
2023-04-01T08:06:03.358Z,20.90
2023-04-01T08:08:42.416Z,24.83
2023-04-01T08:11:40.271Z,15.37
2023-04-01T08:14:33.306Z,21.00
2023-04-01T08:17:25.188Z,18.27
2023-04-01T08:20:03.071Z,19.73
2023-04-01T08:22:39.483Z,17.60
2023-04-01T08:25:21.215Z,13.50
2023-04-01T08:27:52.867Z,22.77
2023-04-01T08:30:23.096Z,17.50
2023-04-01T08:32:55.246Z,21.43
2023-04-01T08:35:32.952Z,20.60
2023-04-01T08:38:09.210Z,23.30
2023-04-01T08:40:55.549Z,20.40
2023-04-01T08:43:33.567Z,25.00
2023-04-01T08:46:10.221Z,14.83
2023-04-01T08:48:48.766Z,12.63
2023-04-01T08:51:39.421Z,15.80
2023-04-01T08:54:30.741Z,13.60
2023-04-01T08:57:07.412Z,12.50
2023-04-01T08:59:59.492Z,20.00
2023-04-01T09:03:28.756Z,11.93
2023-04-01T09:06:20.002Z,15.13
2023-04-01T09:09:00.657Z,16.90
2023-04-01T09:11:35.946Z,27.33
2023-04-01T09:14:30.209Z,19.53
2023-04-01T09:17:36.043Z,23.70
2023-04-01T09:20:10.323Z,21.70
2023-04-01T09:22:46.325Z,13.47
2023-04-01T09:25:25.672Z,14.60
2023-04-01T09:28:00.120Z,16.20
2023-04-01T09:30:43.263Z,16.03
2023-04-01T09:33:34.216Z,21.30
2023-04-01T09:36:07.454Z,14.80
2023-04-01T09:38:42.574Z,14.17
2023-04-01T09:41:23.078Z,16.43
2023-04-01T09:44:06.542Z,17.80
2023-04-01T09:46:53.671Z,15.20
2023-04-01T09:49:41.210Z,17.67
2023-04-01T09:52:15.933Z,14.47
2023-04-01T09:54:59.300Z,13.10
2023-04-01T09:57:54.724Z,15.53
2023-04-01T10:00:49.536Z,15.83
2023-04-01T10:03:37.289Z,17.50
2023-04-01T10:06:25.729Z,12.70
2023-04-01T10:09:09.703Z,12.77
2023-04-01T10:11:55.624Z,12.10
2023-04-01T10:14:33.863Z,13.90
2023-04-01T10:17:15.920Z,9.90
2023-04-01T10:20:04.890Z,12.70
2023-04-01T10:22:54.957Z,13.33
2023-04-01T10:25:43.061Z,14.33
2023-04-01T10:28:34.371Z,16.67
2023-04-01T10:31:29.288Z,22.03
2023-04-01T10:34:14.451Z,16.53
2023-04-01T10:36:54.495Z,9.47
2023-04-01T10:39:52.764Z,12.90
2023-04-01T10:42:57.460Z,14.80
2023-04-01T10:45:59.710Z,13.87
2023-04-01T10:48:49.113Z,8.97
2023-04-01T10:51:28.979Z,9.87
2023-04-01T10:54:17.334Z,19.20
2023-04-01T10:57:19.557Z,10.50
2023-04-01T11:00:26.074Z,19.60
2023-04-01T11:03:50.466Z,10.87
2023-04-01T11:07:02.107Z,16.47
2023-04-01T11:09:50.624Z,13.83
2023-04-01T11:12:47.177Z,17.20
2023-04-01T11:15:46.580Z,13.70
2023-04-01T11:18:40.911Z,14.57
2023-04-01T11:21:29.695Z,15.47
2023-04-01T11:24:09.454Z,21.00
2023-04-01T11:26:55.661Z,12.67
2023-04-01T11:29:59.219Z,14.70
2023-04-01T11:32:44.576Z,15.97
2023-04-01T11:35:48.331Z,12.23
2023-04-01T11:38:24.955Z,12.90
2023-04-01T11:40:57.570Z,18.47
2023-04-01T11:43:51.456Z,11.90
2023-04-01T11:46:28.945Z,14.73
2023-04-01T11:52:01.087Z,16.77
2023-04-01T11:54:36.106Z,16.47
2023-04-01T11:57:10.726Z,13.10
2023-04-01T11:59:55.367Z,11.03
2023-04-01T12:02:29.178Z,18.07
2023-04-01T12:05:03.568Z,25.13
2023-04-01T12:07:46.668Z,17.87
2023-04-01T12:10:20.528Z,17.47
2023-04-01T12:13:01.741Z,19.30
2023-04-01T12:15:34.865Z,12.73
2023-04-01T12:18:09.309Z,19.33
2023-04-01T12:20:45.929Z,18.77
2023-04-01T12:23:36.482Z,15.17
2023-04-01T12:26:20.829Z,16.13
2023-04-01T12:29:00.570Z,18.97
2023-04-01T12:31:34.172Z,21.37
2023-04-01T12:34:24.400Z,16.97
2023-04-01T12:37:00.873Z,14.90
2023-04-01T12:39:41.284Z,20.13
2023-04-01T12:42:19.078Z,20.57
2023-04-01T12:44:56.712Z,12.57
2023-04-01T12:47:31.593Z,14.00
2023-04-01T12:50:29.633Z,17.30
2023-04-01T12:53:08.704Z,21.50
2023-04-01T12:55:41.080Z,22.13
2023-04-01T12:58:31.509Z,19.57
2023-04-01T13:01:18.940Z,15.37
2023-04-01T13:04:02.607Z,13.93
2023-04-01T13:06:37.673Z,16.70
2023-04-01T13:09:18.236Z,14.57
2023-04-01T13:11:54.446Z,16.30
2023-04-01T13:14:33.316Z,17.33
2023-04-01T13:17:08.131Z,18.77
2023-04-01T13:19:39.842Z,12.90
2023-04-01T13:22:13.032Z,16.60
2023-04-01T13:24:49.180Z,13.33
2023-04-01T13:27:22.174Z,15.80
2023-04-01T13:29:59.420Z,14.40
2023-04-01T13:35:21.330Z,11.53
2023-04-01T13:38:18.368Z,10.03
2023-04-01T13:41:02.203Z,12.23
2023-04-01T13:43:35.274Z,16.43
2023-04-01T13:46:29.255Z,14.33
2023-04-01T13:49:17.454Z,10.73
2023-04-01T13:51:54.132Z,14.10
2023-04-01T13:54:46.877Z,13.33
2023-04-01T13:57:23.662Z,13.37
2023-04-01T14:00:17.628Z,11.27
2023-04-01T14:03:02.024Z,6.33
2023-04-01T14:05:43.771Z,10.40
2023-04-01T14:08:20.627Z,6.77
2023-04-01T14:10:55.902Z,10.47
2023-04-01T14:13:32.894Z,13.83
2023-04-01T14:16:14.167Z,4.83
2023-04-01T14:18:49.026Z,4.90
2023-04-01T14:21:27.499Z,7.93
2023-04-01T14:24:09.857Z,7.90
2023-04-01T14:26:48.872Z,9.70
2023-04-01T14:29:24.689Z,9.47
2023-04-01T14:32:01.347Z,2.70
2023-04-01T14:34:37.308Z,6.53
2023-04-01T14:37:25.662Z,5.60
2023-04-01T14:40:06.831Z,6.70
2023-04-01T14:42:58.790Z,14.13
2023-04-01T14:45:45.903Z,15.70
2023-04-01T14:48:21.788Z,16.10
2023-04-01T14:50:52.778Z,15.80
2023-04-01T14:53:30.541Z,18.07
2023-04-01T14:56:02.025Z,11.83
2023-04-01T14:58:43.621Z,10.77
2023-04-01T15:01:21.262Z,22.83
2023-04-01T15:03:56.611Z,14.20
2023-04-01T15:06:42.752Z,15.13
2023-04-01T15:09:17.680Z,13.73
2023-04-01T15:11:54.939Z,23.80
2023-04-01T15:14:31.265Z,19.30
2023-04-01T15:17:08.365Z,10.87
2023-04-01T15:19:46.850Z,20.50
2023-04-01T15:22:28.787Z,16.57
2023-04-01T15:25:05.164Z,17.00
2023-04-01T15:27:43.962Z,14.80
2023-04-01T15:30:32.329Z,22.63
2023-04-01T15:33:16.608Z,11.10
2023-04-01T15:35:50.737Z,18.40
2023-04-01T15:38:27.821Z,19.23
2023-04-01T15:41:01.473Z,15.10
2023-04-01T15:43:40.020Z,12.80
2023-04-01T15:46:31.108Z,11.40
2023-04-01T15:49:07.667Z,18.90
2023-04-01T15:51:52.471Z,22.60
2023-04-01T15:54:35.808Z,11.53
2023-04-01T15:57:16.735Z,11.17
2023-04-01T16:00:00.750Z,9.37
2023-04-01T16:02:35.492Z,13.00
2023-04-01T16:05:08.591Z,11.10
2023-04-01T16:07:46.881Z,7.80
2023-04-01T16:10:35.426Z,11.20
2023-04-01T16:13:15.020Z,6.67
2023-04-01T16:15:49.686Z,10.77
2023-04-01T16:18:31.667Z,5.80
2023-04-01T16:21:03.645Z,11.23
2023-04-01T16:23:38.716Z,10.10
2023-04-01T16:26:11.242Z,6.93
2023-04-01T16:28:44.305Z,23.37
2023-04-01T16:31:17.334Z,4.23
2023-04-01T16:33:50.677Z,4.70
2023-04-01T16:36:25.630Z,5.03
2023-04-01T16:38:59.546Z,7.83
2023-04-01T16:41:33.257Z,2.80
2023-04-01T16:44:13.862Z,13.27
2023-04-01T16:46:46.407Z,6.80
2023-04-01T16:49:26.334Z,5.20
2023-04-01T16:51:57.221Z,8.70
2023-04-01T16:54:32.141Z,9.27
2023-04-01T16:57:06.170Z,18.33
2023-04-01T16:59:39.284Z,4.97
2023-04-01T17:02:14.270Z,2.13
2023-04-01T17:04:46.763Z,6.93
2023-04-01T17:07:25.108Z,8.10
2023-04-01T17:10:05.388Z,4.97
2023-04-01T17:12:38.963Z,9.20
2023-04-01T17:15:14.103Z,2.60
2023-04-01T17:17:50.446Z,6.80
2023-04-01T17:20:30.577Z,4.17
2023-04-01T17:23:04.186Z,2.03
2023-04-01T17:25:50.114Z,4.00
2023-04-01T17:28:27.109Z,2.80
2023-04-01T17:31:01.754Z,16.13
2023-04-01T17:33:46.337Z,6.13
2023-04-01T17:36:24.383Z,4.40
2023-04-01T17:39:00.770Z,2.93
2023-04-01T17:41:40.550Z,3.50
2023-04-01T17:44:20.139Z,7.60
2023-04-01T17:47:02.645Z,6.03
2023-04-01T17:49:35.831Z,12.80
2023-04-01T17:52:08.560Z,10.53
2023-04-01T17:54:45.448Z,4.10
2023-04-01T17:57:30.333Z,6.00
2023-04-01T18:00:05.504Z,4.07
2023-04-01T18:02:46.329Z,8.77
2023-04-01T18:05:30.559Z,3.40
2023-04-01T18:08:12.652Z,3.77
2023-04-01T18:10:45.115Z,8.27
2023-04-01T18:13:27.201Z,6.20
2023-04-01T18:16:01.790Z,10.63
2023-04-01T18:18:41.148Z,4.30
2023-04-01T18:21:16.506Z,7.20
2023-04-01T18:23:59.232Z,5.80
2023-04-01T18:26:33.829Z,6.03
2023-04-01T18:29:07.597Z,3.93
2023-04-01T18:31:40.459Z,4.23
2023-04-01T18:34:11.896Z,4.33
2023-04-01T18:36:45.681Z,8.50
2023-04-01T18:39:18.449Z,11.97
2023-04-01T18:41:55.624Z,14.23
2023-04-01T18:44:40.700Z,21.80
2023-04-01T18:47:18.294Z,9.97
2023-04-01T18:49:51.213Z,17.43
2023-04-01T18:52:24.771Z,20.83
2023-04-01T18:54:59.113Z,24.87
2023-04-01T18:57:31.067Z,20.07
2023-04-01T19:00:05.897Z,17.67
2023-04-01T19:02:38.380Z,26.93
2023-04-01T19:05:10.313Z,24.07
2023-04-01T19:07:47.867Z,20.67
2023-04-01T19:10:26.131Z,21.70
2023-04-01T19:13:08.140Z,36.20
2023-04-01T19:15:43.812Z,30.20
2023-04-01T19:18:26.246Z,21.07
2023-04-01T19:20:59.307Z,27.57
2023-04-01T19:23:43.631Z,23.03
2023-04-01T19:26:21.315Z,19.20
2023-04-01T19:28:53.949Z,21.30
2023-04-01T19:31:32.789Z,9.97
2023-04-01T19:34:09.393Z,18.37
2023-04-01T19:36:42.367Z,13.50
2023-04-01T19:39:19.377Z,27.37
2023-04-01T19:41:54.115Z,16.57
2023-04-01T19:44:31.615Z,19.67
2023-04-01T19:47:05.674Z,19.27
2023-04-01T19:49:46.753Z,19.17
2023-04-01T19:52:19.758Z,23.20
2023-04-01T19:54:53.961Z,16.43
2023-04-01T19:57:31.468Z,17.73
2023-04-01T20:00:05.663Z,14.47
2023-04-01T20:02:57.103Z,17.63
2023-04-01T20:05:41.379Z,19.97
2023-04-01T20:08:16.421Z,21.20
2023-04-01T20:10:48.016Z,15.37
2023-04-01T20:13:23.897Z,17.47
2023-04-01T20:16:01.144Z,15.73
2023-04-01T20:18:37.519Z,17.50
2023-04-01T20:21:09.690Z,16.10
2023-04-01T20:23:45.743Z,16.20
2023-04-01T20:26:16.377Z,31.63
2023-04-01T20:28:51.015Z,23.90
2023-04-01T20:31:27.582Z,12.00
2023-04-01T20:34:14.167Z,14.50
2023-04-01T20:36:49.982Z,13.37
2023-04-01T20:39:38.019Z,22.70
2023-04-01T20:42:17.639Z,17.00
2023-04-01T20:44:54.051Z,13.80
2023-04-01T20:47:27.599Z,10.50
2023-04-01T20:50:02.045Z,14.90
2023-04-01T20:52:35.643Z,13.40
2023-04-01T20:55:21.191Z,11.57
2023-04-01T20:57:54.581Z,12.90
2023-04-01T21:00:41.810Z,17.87
2023-04-01T21:03:19.108Z,11.93
2023-04-01T21:06:15.726Z,11.47
2023-04-01T21:09:01.739Z,14.67
2023-04-01T21:11:35.360Z,7.20
2023-04-01T21:14:16.387Z,16.63
2023-04-01T21:16:51.563Z,13.53
2023-04-01T21:19:32.702Z,10.27
2023-04-01T21:22:07.635Z,11.37
2023-04-01T21:24:48.539Z,8.40
2023-04-01T21:27:24.122Z,9.13
2023-04-01T21:30:02.214Z,14.27
2023-04-01T21:32:49.438Z,13.37
2023-04-01T21:35:26.694Z,15.93
2023-04-01T21:38:15.541Z,11.83
2023-04-01T21:40:56.726Z,9.90
2023-04-01T21:43:39.128Z,8.33
2023-04-01T21:46:29.463Z,8.00
2023-04-01T21:49:25.890Z,13.90
2023-04-01T21:52:10.031Z,13.47
2023-04-01T21:54:58.221Z,15.60
2023-04-01T21:57:40.478Z,10.13
2023-04-01T22:00:18.325Z,7.53
2023-04-01T22:03:25.925Z,7.07
2023-04-01T22:06:01.623Z,10.27
2023-04-01T22:08:38.478Z,11.87
2023-04-01T22:11:11.440Z,9.47
2023-04-01T22:13:44.303Z,15.63
2023-04-01T22:16:19.700Z,14.53
2023-04-01T22:18:50.447Z,14.60
2023-04-01T22:21:25.296Z,17.17
2023-04-01T22:24:00.304Z,13.80
2023-04-01T22:26:33.249Z,9.03
2023-04-01T22:29:06.905Z,10.83
2023-04-01T22:31:40.515Z,4.10
2023-04-01T22:34:14.043Z,8.73
2023-04-01T22:36:45.899Z,9.60
2023-04-01T22:39:25.960Z,6.60
2023-04-01T22:42:03.201Z,7.50
2023-04-01T22:44:40.967Z,11.50
2023-04-01T22:47:17.350Z,10.57
2023-04-01T22:49:51.070Z,6.63
2023-04-01T22:52:27.152Z,4.90
2023-04-01T22:55:01.324Z,11.80
2023-04-01T22:57:40.840Z,5.20
2023-04-01T23:00:13.549Z,10.13
2023-04-01T23:02:45.402Z,11.27
2023-04-01T23:05:16.500Z,11.03
2023-04-01T23:07:50.249Z,7.93
2023-04-01T23:10:26.534Z,7.53
2023-04-01T23:12:58.431Z,7.87
2023-04-01T23:15:29.384Z,8.10
2023-04-01T23:18:08.858Z,12.10
2023-04-01T23:20:59.846Z,7.70
2023-04-01T23:23:33.331Z,10.07
2023-04-01T23:26:08.716Z,11.20
2023-04-01T23:28:43.487Z,14.13
2023-04-01T23:31:31.263Z,13.50
2023-04-01T23:34:02.006Z,13.10
2023-04-01T23:36:33.166Z,9.13
2023-04-01T23:39:05.890Z,9.87
2023-04-01T23:41:38.203Z,14.33
2023-04-01T23:44:09.182Z,15.00
2023-04-01T23:46:40.129Z,8.20
2023-04-01T23:49:13.216Z,13.60
2023-04-01T23:51:52.642Z,16.10
2023-04-01T23:54:27.379Z,16.03
2023-04-01T23:56:59.733Z,6.60
2023-04-01T23:59:32.255Z,67.47
